Time;durP1;ratioP1;P1;durP2;ratioP2;P2;SDS_P1;SDS_P2;PMS_P1;PMS_P2;Temp;Humidity;BMP_temperature;BMP_pressure;BME280_temperature;BME280_humidity;BME280_pressure;Samples;Min_cycle;Max_cycle;Signal;HPM_P1;HPM_P2
2021/09/16 00:00:08;;;;;;;4.85;4.43;;;;;;;17.59;82.24;100963.19;6201315;28;20308;-51
2021/09/16 00:03:32;;;;;;;7.57;5.38;;;;;;;17.66;82.05;100972.56;6208367;28;20213;-52
2021/09/16 00:06:53;;;;;;;10.57;4.05;;;;;;;17.56;82.56;100968.53;6200436;28;20237;-52
2021/09/16 00:10:16;;;;;;;11.98;5.10;;;;;;;17.46;83.36;100976.75;6201351;28;20222;-53
2021/09/16 00:13:38;;;;;;;8.95;4.68;;;;;;;17.32;83.58;100973.75;6202152;28;20503;-47
2021/09/16 00:16:59;;;;;;;6.43;4.63;;;;;;;17.58;83.17;100977.25;6205880;28;20229;-49
2021/09/16 00:20:20;;;;;;;6.57;4.90;;;;;;;17.58;82.32;100978.09;6198385;28;20666;-50
2021/09/16 00:23:40;;;;;;;6.93;5.30;;;;;;;17.53;82.54;100980.06;6202987;28;20246;-50
2021/09/16 00:27:01;;;;;;;6.77;4.73;;;;;;;17.61;81.52;100979.78;6200854;28;20225;-49
2021/09/16 00:34:54;;;;;;;8.03;5.57;;;;;;;17.81;80.69;100989.59;6138702;28;20234;-48
2021/09/16 00:38:15;;;;;;;9.32;5.80;;;;;;;17.40;82.30;100984.03;6189581;28;20332;-49
2021/09/16 00:41:36;;;;;;;8.27;5.43;;;;;;;17.61;81.75;100980.63;6200719;28;20234;-49
2021/09/16 00:44:57;;;;;;;8.80;4.82;;;;;;;17.75;80.64;100984.56;6198301;28;20328;-48
2021/09/16 00:48:19;;;;;;;8.00;5.10;;;;;;;17.73;80.26;100983.75;6199158;28;20225;-49
2021/09/16 00:51:40;;;;;;;6.73;4.87;;;;;;;17.43;81.15;100990.06;6200357;28;20607;-46
2021/09/16 00:55:02;;;;;;;5.30;4.70;;;;;;;17.45;81.33;100990.00;6204926;28;20269;-53
2021/09/16 00:58:24;;;;;;;10.43;5.27;;;;;;;17.35;81.47;100992.09;6203593;28;20241;-48
2021/09/16 01:01:46;;;;;;;11.87;4.93;;;;;;;17.36;81.52;100990.31;6203270;28;20234;-53
2021/09/16 01:05:09;;;;;;;6.77;4.57;;;;;;;17.43;81.72;101000.59;6201434;28;20230;-52
2021/09/16 01:08:30;;;;;;;8.70;5.83;;;;;;;17.11;82.24;101001.66;6210427;28;20308;-51
2021/09/16 01:11:52;;;;;;;11.03;6.00;;;;;;;17.27;81.74;100994.09;6211318;28;20229;-52
2021/09/16 01:15:13;;;;;;;7.07;5.27;;;;;;;17.36;81.60;100993.81;6206707;28;20245;-52
2021/09/16 01:18:34;;;;;;;5.13;4.63;;;;;;;17.49;80.88;100996.88;6204599;28;20222;-48
2021/09/16 01:21:56;;;;;;;7.40;5.53;;;;;;;17.23;81.32;100987.22;6202884;28;20252;-47
2021/09/16 01:25:18;;;;;;;7.43;5.13;;;;;;;17.27;81.21;100992.34;6201453;28;20233;-50
2021/09/16 01:28:39;;;;;;;7.37;4.60;;;;;;;17.66;79.62;100989.25;6207755;28;20326;-50
2021/09/16 01:32:04;;;;;;;7.13;5.20;;;;;;;17.68;79.17;100995.31;6203473;28;20258;-49
2021/09/16 01:35:26;;;;;;;7.50;4.87;;;;;;;17.47;79.06;100996.94;6200416;28;20266;-49
2021/09/16 01:38:47;;;;;;;7.78;4.07;;;;;;;17.26;80.54;101011.69;6204390;28;20226;-52
2021/09/16 01:42:10;;;;;;;5.65;4.15;;;;;;;16.92;81.75;101001.41;6202185;28;20226;-52
2021/09/16 01:45:31;;;;;;;5.27;4.47;;;;;;;16.96;82.00;101005.66;6203455;28;20253;-50
2021/09/16 01:48:52;;;;;;;7.63;5.60;;;;;;;16.74;82.45;101006.31;6201392;28;20237;-48
2021/09/16 01:52:12;;;;;;;7.15;4.88;;;;;;;16.83;82.04;101013.09;6205909;28;20269;-52
2021/09/16 01:55:33;;;;;;;8.45;4.45;;;;;;;17.06;80.44;101001.81;6208046;28;20237;-48
2021/09/16 01:58:56;;;;;;;10.13;4.32;;;;;;;16.71;82.12;101006.44;6189137;28;20233;-52
2021/09/16 02:02:17;;;;;;;9.90;4.50;;;;;;;16.67;81.45;101012.69;6204291;28;20233;-48
2021/09/16 02:05:39;;;;;;;4.80;3.38;;;;;;;17.14;79.60;101009.47;6205299;28;21701;-51
2021/09/16 02:09:00;;;;;;;5.77;3.10;;;;;;;16.86;80.96;101012.13;6204230;28;20233;-49
2021/09/16 02:12:21;;;;;;;5.45;2.53;;;;;;;16.66;80.36;101004.84;6200948;28;20238;-51
2021/09/16 02:15:44;;;;;;;3.90;2.60;;;;;;;16.89;79.30;101004.16;6207125;28;20237;-47
2021/09/16 02:19:04;;;;;;;6.83;2.33;;;;;;;16.86;79.14;101012.13;6199105;28;20233;-49
2021/09/16 02:22:25;;;;;;;8.10;3.07;;;;;;;16.88;78.84;101018.19;6189226;28;20500;-53
2021/09/16 02:25:46;;;;;;;5.90;3.33;;;;;;;16.68;78.42;101021.44;6199184;28;20604;-51
2021/09/16 02:29:07;;;;;;;3.07;1.60;;;;;;;16.63;78.83;101018.94;6198461;28;20305;-51
2021/09/16 02:32:29;;;;;;;5.90;2.20;;;;;;;16.38;79.55;101024.09;6199356;28;20234;-51
2021/09/16 02:35:52;;;;;;;6.63;2.50;;;;;;;16.83;77.36;101025.41;6203077;28;20320;-48
2021/09/16 02:39:14;;;;;;;5.07;1.90;;;;;;;16.69;77.23;101023.13;6205132;28;20233;-50
2021/09/16 02:42:35;;;;;;;5.70;2.10;;;;;;;16.30;78.45;101024.34;6204138;28;20229;-49
2021/09/16 02:45:56;;;;;;;2.90;1.17;;;;;;;16.74;77.21;101022.09;6201317;28;20688;-49
2021/09/16 02:49:19;;;;;;;2.60;1.90;;;;;;;16.65;76.98;101024.16;6200346;28;20221;-50
2021/09/16 02:52:40;;;;;;;4.50;1.60;;;;;;;16.86;76.19;101026.13;6207558;28;20233;-48
2021/09/16 02:56:01;;;;;;;1.77;1.47;;;;;;;16.80;76.06;101030.72;6204920;28;20245;-50
2021/09/16 02:59:22;;;;;;;5.03;1.37;;;;;;;16.51;77.46;101020.16;6200703;28;20756;-52
2021/09/16 03:02:43;;;;;;;6.13;1.80;;;;;;;16.70;76.14;101025.72;6201992;28;20225;-53
2021/09/16 03:06:05;;;;;;;3.47;1.30;;;;;;;16.46;76.73;101015.97;6201886;28;20289;-50
2021/09/16 03:09:26;;;;;;;2.93;1.50;;;;;;;16.33;77.14;101026.84;6198199;28;20229;-49
2021/09/16 03:12:47;;;;;;;6.20;1.43;;;;;;;16.31;77.50;101025.19;6199200;28;20320;-50
2021/09/16 03:16:08;;;;;;;4.63;1.47;;;;;;;16.22;77.54;101033.31;6202198;28;20331;-50
2021/09/16 03:19:29;;;;;;;2.60;1.30;;;;;;;16.17;76.93;101027.34;6200756;28;20229;-51
2021/09/16 03:22:51;;;;;;;2.70;1.50;;;;;;;16.46;75.92;101039.63;6203088;28;20957;-48
2021/09/16 03:26:13;;;;;;;8.33;1.60;;;;;;;16.66;75.23;101029.38;6206692;28;20230;-47
2021/09/16 03:29:34;;;;;;;5.90;1.87;;;;;;;16.25;76.49;101041.13;6209536;28;20623;-50
2021/09/16 03:32:58;;;;;;;1.70;0.97;;;;;;;16.71;74.89;101037.97;6202609;28;20229;-50
2021/09/16 03:36:19;;;;;;;3.17;1.97;;;;;;;16.37;75.42;101042.53;6201386;28;20237;-51
2021/09/16 03:39:41;;;;;;;3.23;1.23;;;;;;;16.48;74.73;101043.09;6203439;28;20236;-51
2021/09/16 03:43:03;;;;;;;5.43;1.47;;;;;;;16.21;75.16;101050.88;6200760;28;20274;-47
2021/09/16 03:46:24;;;;;;;3.87;1.30;;;;;;;16.32;74.57;101040.91;6199389;28;20230;-49
2021/09/16 03:49:45;;;;;;;5.80;1.93;;;;;;;16.19;74.53;101038.66;6199030;28;20229;-52
2021/09/16 03:53:06;;;;;;;5.60;1.47;;;;;;;16.23;74.62;101033.28;6197933;28;20257;-51
2021/09/16 03:56:28;;;;;;;3.23;1.63;;;;;;;16.51;73.34;101027.19;6204513;28;20233;-49
2021/09/16 03:59:49;;;;;;;5.73;1.60;;;;;;;16.26;74.03;101033.19;6202797;28;20324;-53
2021/09/16 04:03:12;;;;;;;3.93;1.53;;;;;;;16.42;73.24;101044.13;6200973;28;20233;-51
2021/09/16 04:06:33;;;;;;;2.00;1.37;;;;;;;16.29;73.75;101046.25;6200924;28;20225;-52
2021/09/16 04:09:54;;;;;;;3.00;1.40;;;;;;;16.56;72.86;101054.22;6195917;28;20627;-51
2021/09/16 04:13:16;;;;;;;4.60;1.20;;;;;;;16.46;72.91;101037.88;6202206;28;20225;-51
2021/09/16 04:16:37;;;;;;;2.70;1.27;;;;;;;16.20;73.40;101043.88;6201847;28;20237;-51
2021/09/16 04:19:58;;;;;;;2.43;1.23;;;;;;;16.19;73.53;101049.16;6190416;28;20431;-50
2021/09/16 04:23:19;;;;;;;2.87;1.10;;;;;;;15.89;74.77;101047.34;6202279;28;20232;-53
2021/09/16 04:26:40;;;;;;;2.43;1.10;;;;;;;15.88;75.06;101045.66;6203376;28;20228;-52
2021/09/16 04:30:03;;;;;;;2.40;1.13;;;;;;;15.77;75.56;101055.59;6211709;28;20237;-50
2021/09/16 04:33:24;;;;;;;3.07;1.10;;;;;;;16.07;74.98;101050.38;6202169;28;20230;-51
2021/09/16 04:36:45;;;;;;;3.43;1.20;;;;;;;15.60;76.45;101044.63;6201333;28;20241;-49
2021/09/16 04:40:08;;;;;;;3.10;1.23;;;;;;;15.56;76.61;101054.34;6205013;28;20234;-50
2021/09/16 04:43:29;;;;;;;4.40;1.87;;;;;;;15.70;75.90;101047.00;6204528;28;20249;-48
2021/09/16 04:46:51;;;;;;;4.33;1.60;;;;;;;15.78;76.09;101057.31;6207370;28;20508;-49
2021/09/16 04:50:13;;;;;;;2.83;1.27;;;;;;;15.96;75.42;101057.72;6206959;28;20612;-51
2021/09/16 04:53:34;;;;;;;3.60;1.73;;;;;;;15.68;76.76;101068.91;6205827;28;20226;-54
2021/09/16 04:56:55;;;;;;;3.83;1.60;;;;;;;15.48;77.09;101066.81;6201618;28;20327;-50
2021/09/16 05:00:17;;;;;;;2.80;1.63;;;;;;;15.90;75.86;101056.13;6203287;28;20232;-50
2021/09/16 05:03:39;;;;;;;3.30;1.50;;;;;;;16.04;75.30;101061.00;6202845;28;20603;-52
2021/09/16 05:06:59;;;;;;;3.63;1.93;;;;;;;15.73;76.10;101057.44;6206492;28;20233;-53
2021/09/16 05:10:21;;;;;;;6.20;2.17;;;;;;;15.84;76.56;101058.88;6207272;28;20300;-52
2021/09/16 05:13:41;;;;;;;2.10;1.40;;;;;;;15.60;76.73;101055.13;6197795;28;20238;-51
2021/09/16 05:17:02;;;;;;;3.80;2.00;;;;;;;15.56;76.56;101065.69;6204580;28;20245;-52
2021/09/16 05:20:24;;;;;;;4.17;2.47;;;;;;;15.43;77.35;101059.06;6200735;28;20332;-52
2021/09/16 05:23:46;;;;;;;3.63;2.63;;;;;;;15.63;77.04;101058.53;6190860;28;20827;-51
2021/09/16 05:27:07;;;;;;;5.53;3.00;;;;;;;15.90;76.20;101056.97;6202877;28;20237;-48
2021/09/16 05:30:28;;;;;;;5.30;3.20;;;;;;;15.46;77.56;101051.09;6204156;28;20253;-52
2021/09/16 05:33:49;;;;;;;6.07;4.00;;;;;;;15.58;77.46;101062.19;6207486;28;20319;-50
2021/09/16 05:37:11;;;;;;;5.07;3.80;;;;;;;15.40;78.72;101059.13;6207347;28;20265;-52
2021/09/16 05:40:32;;;;;;;7.07;3.80;;;;;;;15.90;76.62;101070.09;6203364;28;20276;-55
2021/09/16 05:43:53;;;;;;;6.50;4.23;;;;;;;16.17;75.76;101066.75;6204389;28;20217;-52
2021/09/16 05:47:14;;;;;;;7.03;6.33;;;;;;;15.53;78.66;101063.19;6202241;28;20504;-52
2021/09/16 05:50:35;;;;;;;8.80;6.40;;;;;;;15.88;76.97;101065.81;6205832;28;20233;-51
2021/09/16 05:53:58;;;;;;;8.97;6.67;;;;;;;15.49;78.46;101064.16;6200421;28;20233;-52
2021/09/16 05:57:18;;;;;;;8.97;5.70;;;;;;;15.88;77.05;101066.66;6199491;28;20238;-52
2021/09/16 06:00:39;;;;;;;6.50;5.87;;;;;;;15.80;77.62;101068.66;6202456;28;20225;-53
2021/09/16 06:04:00;;;;;;;9.13;6.43;;;;;;;16.02;76.81;101063.66;6198193;28;20236;-50
2021/09/16 06:07:21;;;;;;;11.13;7.27;;;;;;;15.76;77.62;101067.00;6204870;28;20233;-54
2021/09/16 06:10:43;;;;;;;9.93;7.83;;;;;;;15.81;77.67;101070.34;6190333;28;20233;-50
2021/09/16 06:14:04;;;;;;;8.23;7.03;;;;;;;15.73;78.04;101070.56;6203272;28;20226;-51
2021/09/16 06:17:25;;;;;;;8.23;6.30;;;;;;;16.02;76.71;101068.91;6204040;28;20237;-51
2021/09/16 06:20:47;;;;;;;7.00;6.40;;;;;;;15.88;77.44;101076.31;6205393;28;20242;-54
2021/09/16 06:24:08;;;;;;;8.70;7.57;;;;;;;15.63;78.38;101086.56;6199250;28;20240;-51
2021/09/16 06:27:30;;;;;;;8.13;7.03;;;;;;;15.64;78.53;101083.03;6190304;28;20229;-52
2021/09/16 06:30:51;;;;;;;12.93;7.10;;;;;;;15.45;79.65;101088.75;6209669;28;20221;-51
2021/09/16 06:34:12;;;;;;;8.50;7.17;;;;;;;15.83;78.31;101086.94;6206733;28;20226;-50
2021/09/16 06:37:33;;;;;;;8.43;7.60;;;;;;;15.63;78.37;101091.81;6192218;28;20242;-53
2021/09/16 06:40:54;;;;;;;10.93;7.40;;;;;;;15.76;78.59;101093.25;6194527;28;20240;-54
2021/09/16 06:44:17;;;;;;;7.40;6.67;;;;;;;15.87;77.83;101085.94;6187995;28;20238;-51
2021/09/16 06:47:39;;;;;;;9.80;7.17;;;;;;;16.18;77.06;101086.88;6205335;28;20237;-53
2021/09/16 06:50:59;;;;;;;7.60;6.90;;;;;;;15.80;78.53;101087.03;6188956;28;20457;-52
2021/09/16 06:54:20;;;;;;;9.37;7.73;;;;;;;15.98;79.59;101095.31;6194855;28;20238;-49
2021/09/16 06:57:41;;;;;;;15.50;9.67;;;;;;;15.78;79.50;101096.72;6201670;28;20233;-48
2021/09/16 07:01:03;;;;;;;9.47;8.57;;;;;;;16.01;79.23;101096.06;6198812;28;20237;-45
2021/09/16 07:04:24;;;;;;;12.70;8.57;;;;;;;16.21;77.68;101095.53;6201003;28;20583;-52
2021/09/16 07:07:45;;;;;;;9.83;9.00;;;;;;;16.14;77.82;101107.13;6199972;28;20504;-51
2021/09/16 07:11:05;;;;;;;8.73;7.90;;;;;;;16.62;76.92;101093.47;6198639;28;20225;-51
2021/09/16 07:14:29;;;;;;;8.90;7.83;;;;;;;16.95;75.57;101098.66;6196581;28;20233;-53
2021/09/16 07:17:52;;;;;;;7.97;7.10;;;;;;;16.67;76.29;101101.22;6198229;28;20225;-51
2021/09/16 07:21:13;;;;;;;8.90;8.00;;;;;;;16.27;77.64;101105.88;6198317;28;20263;-51
2021/09/16 07:24:34;;;;;;;7.97;7.27;;;;;;;16.49;76.62;101110.50;6195029;28;21178;-48
2021/09/16 07:27:55;;;;;;;9.00;8.10;;;;;;;16.73;76.26;101114.19;6199954;28;20638;-50
2021/09/16 07:31:17;;;;;;;13.77;9.47;;;;;;;16.49;77.13;101114.00;6200333;28;20502;-50
2021/09/16 07:34:39;;;;;;;9.57;8.45;;;;;;;16.19;78.11;101118.38;6199766;28;20261;-50
2021/09/16 07:38:00;;;;;;;8.70;7.90;;;;;;;16.55;77.40;101126.09;6205310;28;21329;-53
2021/09/16 07:41:21;;;;;;;7.60;6.63;;;;;;;16.74;76.49;101111.50;6200945;28;20229;-51
2021/09/16 07:44:42;;;;;;;8.30;7.13;;;;;;;16.39;76.57;101119.56;6201821;28;20237;-49
2021/09/16 07:48:03;;;;;;;6.27;5.73;;;;;;;16.64;76.47;101112.69;6202209;28;20244;-50
2021/09/16 07:51:26;;;;;;;7.30;6.43;;;;;;;16.86;76.17;101119.97;6197521;28;20698;-53
2021/09/16 07:54:47;;;;;;;6.50;5.85;;;;;;;16.54;76.86;101125.25;6197093;28;20237;-51
2021/09/16 07:58:07;;;;;;;6.60;5.90;;;;;;;16.36;78.26;101124.91;6195387;28;20237;-49
2021/09/16 08:01:28;;;;;;;6.43;5.50;;;;;;;16.44;78.89;101131.69;6201887;28;21689;-52
2021/09/16 08:04:49;;;;;;;6.37;5.57;;;;;;;16.33;78.49;101131.97;6202377;28;20230;-52
2021/09/16 08:08:12;;;;;;;7.73;4.60;;;;;;;16.54;77.66;101130.50;6201822;28;20229;-51
2021/09/16 08:11:33;;;;;;;9.30;5.73;;;;;;;16.85;75.93;101123.53;6206281;28;20229;-52
2021/09/16 08:14:54;;;;;;;6.27;4.80;;;;;;;16.71;76.47;101127.38;6205491;28;20228;-50
2021/09/16 08:18:15;;;;;;;5.67;4.73;;;;;;;17.00;75.42;101128.31;6207234;28;20225;-54
2021/09/16 08:21:37;;;;;;;6.30;4.13;;;;;;;16.78;76.53;101127.19;6210216;28;20253;-52
2021/09/16 08:24:59;;;;;;;4.70;4.13;;;;;;;16.63;76.53;101128.50;6203287;28;20808;-53
2021/09/16 08:28:20;;;;;;;5.27;3.80;;;;;;;16.57;76.53;101133.94;6200455;28;20623;-51
2021/09/16 08:31:44;;;;;;;7.40;4.33;;;;;;;16.83;75.99;101141.97;6206206;28;20332;-48
2021/09/16 08:35:07;;;;;;;5.47;4.37;;;;;;;16.98;76.02;101138.00;6204100;28;20237;-51
2021/09/16 08:38:29;;;;;;;4.27;3.87;;;;;;;16.92;75.85;101135.56;6200279;28;20256;-50
2021/09/16 08:41:51;;;;;;;7.97;4.10;;;;;;;17.03;75.08;101138.72;6203183;28;20244;-50
2021/09/16 08:45:15;;;;;;;7.87;3.97;;;;;;;17.05;75.34;101136.91;6205156;28;20260;-49
2021/09/16 08:48:36;;;;;;;5.47;3.28;;;;;;;17.44;74.31;101131.28;6203165;28;20238;-49
2021/09/16 08:51:57;;;;;;;6.13;2.80;;;;;;;17.95;73.27;101126.13;6204759;28;20237;-50
2021/09/16 08:55:20;;;;;;;4.40;2.63;;;;;;;18.03;72.26;101121.44;6203054;28;20229;-50
2021/09/16 08:58:46;;;;;;;4.05;2.83;;;;;;;17.95;72.04;101112.94;6200709;28;20233;-49
2021/09/16 09:02:08;;;;;;;4.65;2.25;;;;;;;18.50;69.53;101113.59;6201644;28;20237;-50
2021/09/16 09:05:30;;;;;;;4.95;2.42;;;;;;;17.96;71.50;101120.81;6197855;28;20355;-47
2021/09/16 09:09:06;;;;;;;5.10;2.72;;;;;;;17.76;72.23;101116.19;6197378;28;20713;-51
2021/09/16 09:12:33;;;;;;;2.97;2.30;;;;;;;18.03;71.16;101122.31;6186841;28;20280;-53
2021/09/16 09:16:03;;;;;;;3.72;1.95;;;;;;;18.57;69.31;101120.38;6201413;28;20237;-50
2021/09/16 09:19:26;;;;;;;3.50;2.20;;;;;;;18.45;69.85;101129.56;6196917;28;20232;-49
2021/09/16 09:22:47;;;;;;;2.72;2.30;;;;;;;18.43;69.67;101120.84;6200591;28;20262;-50
2021/09/16 09:26:26;;;;;;;4.53;2.55;;;;;;;18.08;71.22;101117.72;6199849;28;20229;-46
2021/09/16 09:30:02;;;;;;;4.07;2.58;;;;;;;17.91;70.57;101117.47;6191635;28;20234;-50
2021/09/16 09:33:33;;;;;;;4.38;2.95;;;;;;;17.62;72.03;101126.31;6193952;28;20232;-50
2021/09/16 09:37:07;;;;;;;4.82;3.08;;;;;;;18.43;69.76;101122.63;6190973;28;20222;-48
2021/09/16 09:40:30;;;;;;;5.75;3.13;;;;;;;18.16;70.96;101117.44;6196359;28;20233;-49
2021/09/16 09:44:01;;;;;;;6.70;3.50;;;;;;;18.07;71.35;101125.72;6197619;28;20226;-50
2021/09/16 09:47:38;;;;;;;8.15;3.08;;;;;;;18.28;70.68;101130.22;6198372;28;20232;-49
2021/09/16 09:51:01;;;;;;;4.72;2.63;;;;;;;18.63;69.23;101120.13;6198522;28;20241;-53
2021/09/16 09:54:28;;;;;;;3.38;2.45;;;;;;;18.75;68.55;101125.88;6196577;28;20237;-52
2021/09/16 09:58:01;;;;;;;3.72;3.05;;;;;;;19.04;67.79;101128.25;6196524;28;20511;-46
2021/09/16 10:01:32;;;;;;;3.30;2.60;;;;;;;19.14;67.50;101128.75;6200450;28;20225;-49
2021/09/16 10:04:53;;;;;;;3.92;2.97;;;;;;;18.73;68.63;101127.66;6196196;28;20261;-50
2021/09/16 10:08:16;;;;;;;3.03;2.35;;;;;;;18.75;68.16;101118.81;6183832;28;21166;-49
2021/09/16 10:11:39;;;;;;;3.33;2.47;;;;;;;19.04;67.40;101122.97;6190405;28;20268;-53
2021/09/16 10:15:00;;;;;;;4.80;2.72;;;;;;;19.07;67.16;101121.97;6183240;28;20233;-52
2021/09/16 10:18:21;;;;;;;4.05;2.20;;;;;;;19.70;66.42;101132.63;6190304;28;20593;-57
2021/09/16 10:21:43;;;;;;;6.78;2.30;;;;;;;18.76;66.63;101123.13;6186896;28;20233;-51
2021/09/16 10:25:08;;;;;;;3.38;2.40;;;;;;;19.11;66.08;101134.13;6188935;28;20320;-50
2021/09/16 10:28:37;;;;;;;3.63;2.25;;;;;;;19.20;65.75;101120.56;6187736;28;20234;-52
2021/09/16 10:32:36;;;;;;;3.58;2.58;;;;;;;19.31;65.22;101133.34;6190384;28;20717;-48
2021/09/16 10:36:09;;;;;;;7.60;2.83;;;;;;;19.61;63.90;101133.84;6192909;28;20256;-54
2021/09/16 10:39:38;;;;;;;3.38;2.20;;;;;;;20.02;63.48;101133.06;6193891;28;20323;-54
2021/09/16 10:43:01;;;;;;;5.60;2.65;;;;;;;19.85;62.35;101126.72;6194781;28;20289;-54
2021/09/16 10:46:25;;;;;;;3.63;1.75;;;;;;;19.92;62.32;101137.03;6198337;28;20657;-54
2021/09/16 10:49:48;;;;;;;1.92;1.50;;;;;;;19.65;62.88;101130.16;6195615;28;20233;-50
2021/09/16 10:53:35;;;;;;;5.53;2.33;;;;;;;19.48;63.05;101138.81;6200357;28;20244;-51
2021/09/16 10:57:00;;;;;;;9.93;2.88;;;;;;;19.29;64.38;101137.84;6187408;28;20229;-52
2021/09/16 11:00:21;;;;;;;10.45;3.05;;;;;;;19.43;64.37;101134.63;6185895;28;20238;-54
2021/09/16 11:03:58;;;;;;;5.65;2.00;;;;;;;19.50;62.51;101128.16;6186922;28;20241;-51
2021/09/16 11:07:53;;;;;;;3.45;2.28;;;;;;;19.50;63.05;101130.78;6193760;28;20237;-53
2021/09/16 11:11:13;;;;;;;3.28;1.90;;;;;;;19.31;63.48;101128.06;6195788;28;20237;-53
2021/09/16 11:14:39;;;;;;;3.20;2.00;;;;;;;18.96;64.36;101140.91;6196798;28;23154;-54
2021/09/16 11:18:02;;;;;;;2.35;1.75;;;;;;;18.98;64.39;101131.13;6200437;28;20224;-53
2021/09/16 11:21:23;;;;;;;8.32;2.45;;;;;;;19.32;63.22;101131.56;6199234;28;20236;-51
2021/09/16 11:24:45;;;;;;;5.88;2.17;;;;;;;19.91;61.09;101130.00;6198805;28;20234;-54
2021/09/16 11:28:07;;;;;;;2.25;1.40;;;;;;;20.44;59.48;101134.72;6208933;28;20236;-53
2021/09/16 11:31:28;;;;;;;3.40;1.85;;;;;;;20.46;58.68;101135.50;6203875;28;20510;-55
2021/09/16 11:34:54;;;;;;;2.05;1.48;;;;;;;20.43;58.81;101140.94;6197484;28;20257;-53
2021/09/16 11:38:16;;;;;;;2.83;1.88;;;;;;;20.36;58.09;101136.88;6186270;28;20240;-50
2021/09/16 11:41:38;;;;;;;2.55;1.50;;;;;;;20.50;58.58;101134.44;6200802;28;20229;-53
2021/09/16 11:45:10;;;;;;;3.75;1.48;;;;;;;20.02;59.30;101138.34;6203174;28;20229;-53
2021/09/16 11:48:31;;;;;;;3.60;1.70;;;;;;;20.27;59.18;101133.69;6195209;28;20224;-53
2021/09/16 11:51:53;;;;;;;5.88;1.52;;;;;;;19.89;59.89;101134.50;6190331;28;20233;-55
2021/09/16 11:55:16;;;;;;;2.90;1.67;;;;;;;19.48;61.10;101144.09;6203404;28;20618;-52
2021/09/16 11:58:39;;;;;;;9.68;2.97;;;;;;;19.03;65.54;101157.34;6198569;28;20241;-50
2021/09/16 12:02:00;;;;;;;4.22;1.60;;;;;;;19.16;66.25;101157.72;6196252;28;20229;-53
2021/09/16 12:05:32;;;;;;;3.65;1.92;;;;;;;18.88;66.72;101158.78;6199183;28;20253;-53
2021/09/16 12:08:54;;;;;;;2.75;2.05;;;;;;;18.98;67.67;101165.44;6194796;28;20234;-50
2021/09/16 12:12:16;;;;;;;3.33;2.17;;;;;;;18.99;68.24;101156.59;6191756;28;20615;-51
2021/09/16 12:15:38;;;;;;;3.15;1.60;;;;;;;19.47;67.46;101160.84;6200465;28;20225;-52
2021/09/16 12:19:01;;;;;;;2.83;1.50;;;;;;;20.37;65.03;101157.94;6197273;28;20229;-54
2021/09/16 12:22:22;;;;;;;1.80;1.13;;;;;;;20.58;63.38;101150.81;6190972;28;20408;-53
2021/09/16 12:25:53;;;;;;;1.33;1.20;;;;;;;19.98;62.95;101142.91;6188897;28;20532;-49
2021/09/16 12:29:15;;;;;;;5.72;1.40;;;;;;;19.79;63.52;101148.13;6189139;28;20241;-49
2021/09/16 12:32:37;;;;;;;3.88;1.38;;;;;;;19.12;65.09;101156.13;6183872;28;21263;-53
2021/09/16 12:36:10;;;;;;;1.85;1.17;;;;;;;18.75;66.93;101179.47;6186325;28;20225;-52
2021/09/16 12:39:42;;;;;;;1.95;1.25;;;;;;;18.77;67.99;101179.44;6185976;28;20789;-53
2021/09/16 12:43:05;;;;;;;2.83;1.30;;;;;;;18.80;67.50;101160.84;6181852;28;20771;-52
2021/09/16 12:46:26;;;;;;;4.97;2.13;;;;;;;19.23;65.84;101160.06;6190205;28;20308;-52
2021/09/16 12:49:52;;;;;;;2.90;1.55;;;;;;;21.50;59.11;101153.59;6189800;28;20238;-54
2021/09/16 12:53:15;;;;;;;1.90;1.33;;;;;;;20.88;60.77;101157.44;6198365;28;20237;-63
2021/09/16 12:56:36;;;;;;;6.22;1.65;;;;;;;20.94;59.67;101165.13;6198194;28;20237;-63
2021/09/16 13:00:00;;;;;;;4.97;1.88;;;;;;;20.47;61.47;101161.03;6195521;28;20234;-63
2021/09/16 13:03:21;;;;;;;2.00;1.30;;;;;;;20.59;60.55;101133.19;6192940;28;20724;-64
2021/09/16 13:06:44;;;;;;;6.68;2.72;;;;;;;20.59;60.48;101149.06;6191779;28;20225;-64
2021/09/16 13:10:11;;;;;;;3.90;1.80;;;;;;;19.68;63.71;101145.03;6194690;28;20229;-64
2021/09/16 13:13:32;;;;;;;5.90;2.00;;;;;;;19.55;65.24;101152.59;6194262;28;20360;-64
2021/09/16 13:16:53;;;;;;;2.63;1.88;;;;;;;19.44;65.43;101145.16;6194917;28;20237;-61
2021/09/16 13:20:19;;;;;;;3.65;2.15;;;;;;;19.44;65.89;101142.50;6197162;28;20242;-62
2021/09/16 13:23:41;;;;;;;2.42;1.55;;;;;;;19.88;64.41;101138.94;6194727;28;20244;-63
2021/09/16 13:27:02;;;;;;;3.20;1.40;;;;;;;20.26;62.08;101139.06;6196140;28;20309;-62
2021/09/16 13:30:24;;;;;;;4.03;1.70;;;;;;;19.73;63.40;101143.09;6189283;28;20234;-55
2021/09/16 13:33:45;;;;;;;5.68;1.88;;;;;;;19.39;64.09;101144.47;6202165;28;20264;-54
2021/09/16 13:37:06;;;;;;;2.65;1.88;;;;;;;19.27;65.10;101140.53;6205278;28;20507;-55
2021/09/16 13:40:28;;;;;;;4.22;1.80;;;;;;;19.56;63.63;101153.47;6200640;28;20269;-51
2021/09/16 13:43:49;;;;;;;4.95;1.92;;;;;;;19.04;65.31;101149.38;6193402;28;20313;-51
2021/09/16 13:47:10;;;;;;;3.47;1.80;;;;;;;19.36;64.43;101157.78;6193199;28;20229;-53
2021/09/16 13:50:32;;;;;;;5.35;1.70;;;;;;;19.31;64.53;101140.41;6198967;28;20265;-52
2021/09/16 13:53:55;;;;;;;4.30;1.58;;;;;;;19.78;62.50;101119.97;6194751;28;20618;-52
2021/09/16 13:57:17;;;;;;;4.47;1.45;;;;;;;20.40;60.95;101127.88;6203356;28;20225;-53
2021/09/16 14:00:39;;;;;;;4.38;1.67;;;;;;;19.98;61.95;101131.47;6199605;28;21483;-53
2021/09/16 14:04:00;;;;;;;5.13;2.20;;;;;;;19.86;62.28;101139.00;6186248;28;20225;-52
2021/09/16 14:07:20;;;;;;;6.43;2.20;;;;;;;18.97;64.46;101142.59;6193515;28;20234;-55
2021/09/16 14:10:42;;;;;;;6.90;1.98;;;;;;;19.19;63.45;101149.66;6199104;28;20226;-48
2021/09/16 14:14:04;;;;;;;9.05;1.90;;;;;;;19.23;63.16;101138.06;6179823;28;20514;-51
2021/09/16 14:17:25;;;;;;;4.65;1.73;;;;;;;19.72;62.56;101130.81;6193186;28;20240;-52
2021/09/16 14:20:46;;;;;;;2.97;1.58;;;;;;;19.79;61.96;101137.56;6206034;28;20253;-51
2021/09/16 14:24:09;;;;;;;4.18;2.00;;;;;;;19.73;62.11;101137.78;6193822;28;20241;-52
2021/09/16 14:27:30;;;;;;;4.47;2.08;;;;;;;19.95;62.10;101137.75;6196813;28;20222;-52
2021/09/16 14:30:52;;;;;;;4.97;1.80;;;;;;;19.50;63.62;101148.44;6199104;28;20241;-52
2021/09/16 14:34:13;;;;;;;4.28;2.05;;;;;;;19.85;62.60;101132.00;6208776;28;20229;-50
2021/09/16 14:37:34;;;;;;;5.55;2.00;;;;;;;19.32;64.05;101129.78;6198252;28;20233;-54
2021/09/16 14:40:55;;;;;;;6.25;2.33;;;;;;;18.96;65.26;101124.19;6203414;28;20323;-50
2021/09/16 14:44:16;;;;;;;4.45;1.85;;;;;;;19.45;64.20;101127.50;6201839;28;20244;-51
2021/09/16 14:47:38;;;;;;;3.45;2.30;;;;;;;20.01;62.21;101121.63;6202112;28;20240;-52
2021/09/16 14:50:59;;;;;;;5.88;1.60;;;;;;;20.00;62.16;101119.03;6198103;28;20606;-52
2021/09/16 14:54:21;;;;;;;4.80;1.70;;;;;;;19.77;62.15;101123.53;6201174;28;20260;-53
2021/09/16 14:57:41;;;;;;;3.97;1.90;;;;;;;19.98;61.96;101119.09;6200183;28;20233;-52
2021/09/16 15:01:02;;;;;;;3.05;1.73;;;;;;;19.94;61.76;101136.03;6198127;28;20776;-53
2021/09/16 15:04:25;;;;;;;5.82;1.63;;;;;;;19.33;63.62;101123.59;6196507;28;20233;-50
2021/09/16 15:07:46;;;;;;;1.52;1.05;;;;;;;18.86;65.27;101134.22;6196768;28;20308;-52
2021/09/16 15:11:07;;;;;;;2.30;1.50;;;;;;;18.88;65.46;101129.75;6197441;28;20234;-50
2021/09/16 15:14:28;;;;;;;4.85;2.05;;;;;;;18.74;66.16;101121.50;6195368;28;20234;-52
2021/09/16 15:17:49;;;;;;;2.45;1.67;;;;;;;18.95;65.48;101125.13;6200489;28;20313;-49
2021/09/16 15:21:11;;;;;;;2.97;1.50;;;;;;;18.87;65.91;101135.97;6197326;28;20312;-51
2021/09/16 15:24:33;;;;;;;3.58;1.90;;;;;;;18.52;67.74;101138.13;6196608;28;20221;-53
2021/09/16 15:27:54;;;;;;;4.65;1.77;;;;;;;18.91;66.74;101139.34;6192702;28;20962;-53
2021/09/16 15:31:15;;;;;;;4.70;1.60;;;;;;;18.76;67.28;101136.34;6198340;28;20264;-52
2021/09/16 15:34:36;;;;;;;2.80;1.40;;;;;;;18.91;67.32;101142.84;6195602;28;20324;-51
2021/09/16 15:37:59;;;;;;;5.60;2.05;;;;;;;18.70;69.48;101150.63;6202410;28;20266;-49
2021/09/16 15:41:20;;;;;;;3.88;2.50;;;;;;;18.66;71.23;101159.56;6185424;28;20245;-50
2021/09/16 15:44:40;;;;;;;6.80;2.67;;;;;;;18.34;73.12;101162.50;6196731;28;20230;-48